createdAt,value
2017-11-06T00:01:07.236Z,23.02
2017-11-06T00:03:36.270Z,23.47
2017-11-06T00:06:05.328Z,20.33
2017-11-06T00:11:10.341Z,23.30
2017-11-06T00:16:16.195Z,23.90
2017-11-06T00:18:46.181Z,23.10
2017-11-06T00:21:15.217Z,20.57
2017-11-06T00:23:44.344Z,19.63
2017-11-06T00:28:51.203Z,23.48
2017-11-06T00:31:20.243Z,21.40
2017-11-06T00:33:49.384Z,20.37
2017-11-06T00:36:25.756Z,20.53
2017-11-06T00:38:54.862Z,18.70
2017-11-06T00:41:25.921Z,23.07
2017-11-06T00:43:54.961Z,19.77
2017-11-06T00:46:24.014Z,26.52
2017-11-06T00:48:53.125Z,24.30
2017-11-06T00:51:25.575Z,27.10
2017-11-06T00:53:54.781Z,24.63
2017-11-06T00:56:29.286Z,27.60
2017-11-06T00:58:58.307Z,21.20
2017-11-06T01:01:29.250Z,29.60
2017-11-06T01:03:58.291Z,18.53
2017-11-06T01:06:35.615Z,22.20
2017-11-06T01:09:04.683Z,26.45
2017-11-06T01:11:44.512Z,24.43
2017-11-06T01:14:14.820Z,20.30
2017-11-06T01:16:49.125Z,21.20
2017-11-06T01:19:18.182Z,22.60
2017-11-06T01:21:47.247Z,23.30
2017-11-06T01:24:20.140Z,31.95
2017-11-06T01:26:49.160Z,31.08
2017-11-06T01:29:18.191Z,25.97
2017-11-06T01:31:50.683Z,22.40
2017-11-06T01:34:19.731Z,25.30
2017-11-06T01:36:48.795Z,24.60
2017-11-06T01:39:18.803Z,20.37
2017-11-06T01:41:47.848Z,24.00
2017-11-06T01:44:16.910Z,25.87
2017-11-06T01:46:45.983Z,31.15
2017-11-06T01:49:16.016Z,29.27
2017-11-06T01:51:47.074Z,29.93
2017-11-06T01:54:24.027Z,24.73
2017-11-06T01:57:00.034Z,24.87
2017-11-06T01:59:29.995Z,27.10
2017-11-06T02:01:59.035Z,30.33
2017-11-06T02:04:28.313Z,21.37
2017-11-06T02:06:57.354Z,27.53
2017-11-06T02:09:27.348Z,26.47
2017-11-06T02:11:56.387Z,21.20
2017-11-06T02:14:27.467Z,28.13
2017-11-06T02:16:56.504Z,35.20
2017-11-06T02:19:25.651Z,36.83
2017-11-06T02:21:54.691Z,34.80
2017-11-06T02:24:23.863Z,35.47
2017-11-06T02:26:52.947Z,35.10
2017-11-06T02:29:21.983Z,38.30
2017-11-06T02:31:51.023Z,34.97
2017-11-06T02:34:20.103Z,30.03
2017-11-06T02:39:35.753Z,33.85
2017-11-06T02:42:04.830Z,31.73
2017-11-06T02:44:35.908Z,34.13
2017-11-06T02:47:04.959Z,29.13
2017-11-06T02:49:34.912Z,27.90
2017-11-06T02:52:03.979Z,32.07
2017-11-06T02:54:33.019Z,26.07
2017-11-06T02:57:04.075Z,29.30
2017-11-06T02:59:33.114Z,29.70
2017-11-06T03:02:07.146Z,42.85
2017-11-06T03:04:36.199Z,25.53
2017-11-06T03:07:06.286Z,26.30
2017-11-06T03:09:35.363Z,28.50
2017-11-06T03:12:04.392Z,28.23
2017-11-06T03:14:33.433Z,34.70
2017-11-06T03:17:03.413Z,29.73
2017-11-06T03:19:32.472Z,27.93
2017-11-06T03:22:01.514Z,32.67
2017-11-06T03:24:30.595Z,30.90
2017-11-06T03:29:35.619Z,38.78
2017-11-06T03:34:40.531Z,29.87
2017-11-06T03:37:13.739Z,30.67
2017-11-06T03:39:42.821Z,24.80
2017-11-06T03:42:11.842Z,34.60
2017-11-06T03:44:45.162Z,35.58
2017-11-06T03:47:22.315Z,33.37
2017-11-06T03:49:51.349Z,29.50
2017-11-06T03:52:20.398Z,31.67
2017-11-06T03:54:49.438Z,37.67
2017-11-06T03:57:22.573Z,31.87
2017-11-06T04:00:05.242Z,45.75
2017-11-06T04:02:34.311Z,46.10
2017-11-06T04:05:03.392Z,47.62
2017-11-06T04:07:32.430Z,35.97
2017-11-06T04:10:01.466Z,34.97
2017-11-06T04:12:30.511Z,34.67
2017-11-06T04:15:00.487Z,34.87
2017-11-06T04:17:29.550Z,33.07
2017-11-06T04:20:02.268Z,32.97
2017-11-06T04:22:31.329Z,37.50
2017-11-06T04:25:00.367Z,40.03
2017-11-06T04:27:29.426Z,53.33
2017-11-06T04:29:58.476Z,47.60
2017-11-06T04:32:28.430Z,42.87
2017-11-06T04:34:58.402Z,42.27
2017-11-06T04:37:29.364Z,37.67
2017-11-06T04:40:06.024Z,35.00
2017-11-06T04:42:35.082Z,34.00
2017-11-06T04:47:44.071Z,53.00
2017-11-06T04:50:13.142Z,50.83
2017-11-06T04:52:42.206Z,53.93
2017-11-06T04:55:13.527Z,50.70
2017-11-06T04:57:42.610Z,46.47
2017-11-06T05:00:11.646Z,46.70
2017-11-06T05:02:41.231Z,39.43
2017-11-06T05:05:15.030Z,40.10
2017-11-06T05:07:45.035Z,36.73
2017-11-06T05:10:15.065Z,45.40
2017-11-06T05:12:44.106Z,39.07
2017-11-06T05:15:27.348Z,38.27
2017-11-06T05:18:00.604Z,39.10
2017-11-06T05:20:31.545Z,35.17
2017-11-06T05:23:00.594Z,43.40
2017-11-06T05:25:29.668Z,42.57
2017-11-06T05:28:07.222Z,50.35
2017-11-06T05:30:36.268Z,36.90
2017-11-06T05:35:42.599Z,50.00
2017-11-06T05:38:12.660Z,41.73
2017-11-06T05:40:41.688Z,42.67
2017-11-06T05:43:11.658Z,44.07
2017-11-06T05:45:40.690Z,42.73
2017-11-06T05:48:09.768Z,56.13
2017-11-06T05:50:38.819Z,54.70
2017-11-06T05:55:43.910Z,56.25
2017-11-06T05:58:17.082Z,41.37
2017-11-06T06:00:46.114Z,43.20
2017-11-06T06:03:32.867Z,43.00
2017-11-06T06:06:01.907Z,40.13
2017-11-06T06:08:31.945Z,52.40
2017-11-06T06:11:05.648Z,44.13
2017-11-06T06:13:34.687Z,46.47
2017-11-06T06:18:40.606Z,61.33
2017-11-06T06:21:17.767Z,56.13
2017-11-06T06:23:46.814Z,47.47
2017-11-06T06:28:51.746Z,58.35
2017-11-06T06:31:22.758Z,51.73
2017-11-06T06:33:53.863Z,45.67
2017-11-06T06:36:22.903Z,50.00
2017-11-06T06:38:52.098Z,48.80
2017-11-06T06:43:57.110Z,54.53
2017-11-06T06:49:02.018Z,60.30
2017-11-06T06:51:32.014Z,49.40
2017-11-06T06:54:11.896Z,45.87
2017-11-06T06:56:40.927Z,43.87
2017-11-06T07:01:45.870Z,55.53
2017-11-06T07:04:20.063Z,48.37
2017-11-06T07:06:49.118Z,43.43
2017-11-06T07:09:21.838Z,53.28
2017-11-06T07:11:50.880Z,43.80
2017-11-06T07:16:56.812Z,58.13
2017-11-06T07:19:30.914Z,43.57
2017-11-06T07:21:59.966Z,42.47
2017-11-06T07:27:04.884Z,53.92
2017-11-06T07:29:34.896Z,41.27
2017-11-06T07:32:08.595Z,47.30
2017-11-06T07:34:37.632Z,41.87
2017-11-06T07:37:07.666Z,50.47
2017-11-06T07:39:36.719Z,44.17
2017-11-06T07:42:09.424Z,43.43
2017-11-06T07:44:38.449Z,40.47
2017-11-06T07:47:08.402Z,41.03
2017-11-06T07:49:37.501Z,47.87
2017-11-06T07:52:08.567Z,52.50
2017-11-06T07:54:37.611Z,49.70
2017-11-06T07:57:10.050Z,48.60
2017-11-06T07:59:39.099Z,44.17
2017-11-06T08:02:12.115Z,44.50
2017-11-06T08:04:41.157Z,44.67
2017-11-06T08:07:12.176Z,43.60
2017-11-06T08:09:42.182Z,46.20
2017-11-06T08:12:11.276Z,42.40
2017-11-06T08:14:40.460Z,40.43
2017-11-06T08:17:10.503Z,46.37
2017-11-06T08:19:39.543Z,42.63
2017-11-06T08:22:08.615Z,44.17
2017-11-06T08:24:37.654Z,40.10
2017-11-06T08:27:06.697Z,43.73
2017-11-06T08:29:35.752Z,36.20
2017-11-06T08:32:05.919Z,45.53
2017-11-06T08:34:34.959Z,41.70
2017-11-06T08:37:04.004Z,39.33
2017-11-06T08:39:33.079Z,38.23
2017-11-06T08:42:02.120Z,46.97
2017-11-06T08:44:31.189Z,38.60
2017-11-06T08:47:00.221Z,35.17
2017-11-06T08:49:29.274Z,38.97
2017-11-06T08:51:58.316Z,38.10
2017-11-06T08:54:27.367Z,45.50
2017-11-06T08:56:57.330Z,43.27
2017-11-06T08:59:26.367Z,33.63
2017-11-06T09:01:56.337Z,35.60
2017-11-06T09:04:25.384Z,37.53
2017-11-06T09:06:58.227Z,41.42
2017-11-06T09:09:27.314Z,36.00
2017-11-06T09:11:58.270Z,34.50
2017-11-06T09:14:27.312Z,40.90
2017-11-06T09:16:56.385Z,37.87
2017-11-06T09:19:25.447Z,31.03
2017-11-06T09:21:54.487Z,39.40
2017-11-06T09:24:23.527Z,41.47
2017-11-06T09:26:52.575Z,42.37
2017-11-06T09:29:21.611Z,37.23
2017-11-06T09:34:26.519Z,42.80
2017-11-06T09:36:55.586Z,38.03
2017-11-06T09:39:24.627Z,33.57
2017-11-06T09:41:53.706Z,39.50
2017-11-06T09:44:26.158Z,35.80
2017-11-06T09:46:55.259Z,36.93
2017-11-06T09:49:24.297Z,35.10
2017-11-06T09:51:54.314Z,30.00
2017-11-06T09:54:23.358Z,31.33
2017-11-06T09:56:56.002Z,34.63
2017-11-06T09:59:25.049Z,33.53
2017-11-06T10:01:54.145Z,33.47
2017-11-06T10:04:23.187Z,32.80
2017-11-06T10:06:53.225Z,36.73
2017-11-06T10:09:22.312Z,34.40
2017-11-06T10:14:27.306Z,43.40
2017-11-06T10:19:32.229Z,42.28
2017-11-06T10:22:01.274Z,48.25
2017-11-06T10:24:30.319Z,36.60
2017-11-06T10:27:00.360Z,40.60
2017-11-06T10:29:29.386Z,35.07
2017-11-06T10:31:59.354Z,31.17
2017-11-06T10:34:28.406Z,33.17
2017-11-06T10:36:57.474Z,34.83
2017-11-06T10:39:26.532Z,33.43
2017-11-06T10:41:55.567Z,33.87
2017-11-06T10:44:24.626Z,35.77
2017-11-06T10:49:29.615Z,43.00
2017-11-06T10:52:01.678Z,42.30
2017-11-06T10:54:30.722Z,40.30
2017-11-06T10:56:59.818Z,37.83
2017-11-06T10:59:28.867Z,37.15
2017-11-06T11:01:57.921Z,38.85
2017-11-06T11:04:26.956Z,37.30
2017-11-06T11:06:56.005Z,36.27
2017-11-06T11:09:25.070Z,33.43
2017-11-06T11:11:54.111Z,39.67
2017-11-06T11:14:23.159Z,35.30
2017-11-06T11:16:53.202Z,35.43
2017-11-06T11:19:22.253Z,32.10
2017-11-06T11:21:51.301Z,34.50
2017-11-06T11:24:20.364Z,40.38
2017-11-06T11:26:49.405Z,32.80
2017-11-06T11:29:18.483Z,34.77
2017-11-06T11:31:48.476Z,32.97
2017-11-06T11:34:19.523Z,36.60
2017-11-06T11:36:48.537Z,33.47
2017-11-06T11:39:17.576Z,31.13
2017-11-06T11:44:22.551Z,37.00
2017-11-06T11:46:51.619Z,39.60
2017-11-06T11:49:20.691Z,31.10
2017-11-06T11:51:50.021Z,35.72
2017-11-06T11:57:00.579Z,38.70
2017-11-06T11:59:32.747Z,37.40
2017-11-06T12:02:01.760Z,32.60
2017-11-06T12:04:30.823Z,25.50
2017-11-06T12:09:40.812Z,31.52
2017-11-06T12:14:54.515Z,30.77
2017-11-06T12:17:26.570Z,26.70
2017-11-06T12:22:31.533Z,29.80
2017-11-06T12:27:36.638Z,31.75
2017-11-06T12:30:07.670Z,28.73
2017-11-06T12:32:36.730Z,26.00
2017-11-06T12:35:05.786Z,25.13
2017-11-06T12:37:34.824Z,28.93
2017-11-06T12:40:03.912Z,29.63
2017-11-06T12:42:32.948Z,29.37
2017-11-06T12:45:03.013Z,27.10
2017-11-06T12:47:32.056Z,28.65
2017-11-06T12:50:06.338Z,25.07
2017-11-06T12:52:35.382Z,26.33
2017-11-06T12:55:10.060Z,27.50
2017-11-06T12:57:39.108Z,28.20
2017-11-06T13:00:08.142Z,43.30
2017-11-06T13:02:37.180Z,21.43
2017-11-06T13:05:08.294Z,19.87
2017-11-06T13:07:37.374Z,22.63
2017-11-06T13:10:07.412Z,19.67
2017-11-06T13:12:36.452Z,19.57
2017-11-06T13:15:07.431Z,20.50
2017-11-06T13:17:36.484Z,24.50
2017-11-06T13:22:41.407Z,22.17
2017-11-06T13:25:11.407Z,20.47
2017-11-06T13:27:40.484Z,20.40
2017-11-06T13:30:09.520Z,19.83
2017-11-06T13:32:38.567Z,19.60
2017-11-06T13:35:07.607Z,17.83
2017-11-06T13:37:36.656Z,18.70
2017-11-06T13:40:05.777Z,22.00
2017-11-06T13:42:34.834Z,24.73
2017-11-06T13:45:03.866Z,23.80
2017-11-06T13:47:32.911Z,19.90
2017-11-06T13:50:03.949Z,17.80
2017-11-06T13:52:33.002Z,20.50
2017-11-06T13:55:02.035Z,18.47
2017-11-06T13:57:31.094Z,18.93
2017-11-06T14:00:04.145Z,18.83
2017-11-06T14:02:33.228Z,18.00
2017-11-06T14:05:03.240Z,18.10
2017-11-06T14:07:32.291Z,24.67
2017-11-06T14:12:37.233Z,29.65
2017-11-06T14:15:06.272Z,23.60
2017-11-06T14:17:35.364Z,20.70
2017-11-06T14:20:06.335Z,23.43
2017-11-06T14:22:35.389Z,23.23
2017-11-06T14:25:04.430Z,20.77
2017-11-06T14:27:33.472Z,19.97
2017-11-06T14:30:04.479Z,20.00
2017-11-06T14:32:33.544Z,21.30
2017-11-06T14:35:02.584Z,19.53
2017-11-06T14:37:31.631Z,19.20
2017-11-06T14:40:00.775Z,19.40
2017-11-06T14:42:29.788Z,22.60
2017-11-06T14:44:58.870Z,25.30
2017-11-06T14:47:27.959Z,18.93
2017-11-06T14:52:32.927Z,23.52
2017-11-06T14:55:03.975Z,19.40
2017-11-06T14:57:33.054Z,17.67
2017-11-06T15:00:02.107Z,15.80
2017-11-06T15:02:31.180Z,16.23
2017-11-06T15:05:01.250Z,15.00
2017-11-06T15:07:30.304Z,13.90
2017-11-06T15:10:03.815Z,20.05
2017-11-06T15:12:32.843Z,17.70
2017-11-06T15:15:03.878Z,19.10
2017-11-06T15:17:32.930Z,14.30
2017-11-06T15:20:02.958Z,18.00
2017-11-06T15:22:32.029Z,20.57
2017-11-06T15:27:37.008Z,16.87
2017-11-06T15:30:11.110Z,16.03
2017-11-06T15:32:41.168Z,15.13
2017-11-06T15:35:11.157Z,20.20
2017-11-06T15:37:40.265Z,14.90
2017-11-06T15:40:10.285Z,15.07
2017-11-06T15:42:39.323Z,14.93
2017-11-06T15:45:09.306Z,18.73
2017-11-06T15:47:38.360Z,16.20
2017-11-06T15:50:09.354Z,20.92
2017-11-06T15:52:38.439Z,16.07
2017-11-06T15:55:09.490Z,19.70
2017-11-06T15:57:38.543Z,17.20
2017-11-06T16:00:07.597Z,20.63
2017-11-06T16:02:36.631Z,20.33
2017-11-06T16:05:09.624Z,21.43
2017-11-06T16:07:38.650Z,18.93
2017-11-06T16:12:43.623Z,24.33
2017-11-06T16:15:12.662Z,24.63
2017-11-06T16:20:18.707Z,27.15
2017-11-06T16:22:47.737Z,24.50
2017-11-06T16:27:52.679Z,26.15
2017-11-06T16:30:21.759Z,28.80
2017-11-06T16:32:51.786Z,21.40
2017-11-06T16:35:20.824Z,27.47
2017-11-06T16:37:49.874Z,30.10
2017-11-06T16:40:18.919Z,29.57
2017-11-06T16:42:48.878Z,22.57
2017-11-06T16:45:17.920Z,25.70
2017-11-06T16:47:46.958Z,24.73
2017-11-06T16:50:16.010Z,28.17
2017-11-06T16:52:45.074Z,28.60
2017-11-06T16:57:50.081Z,40.20
2017-11-06T17:02:55.007Z,33.50
2017-11-06T17:05:24.034Z,30.70
2017-11-06T17:07:54.004Z,24.07
2017-11-06T17:10:23.059Z,31.03
2017-11-06T17:12:52.110Z,29.20
2017-11-06T17:15:21.189Z,27.37
2017-11-06T17:17:50.236Z,31.27
2017-11-06T17:20:19.301Z,30.67
2017-11-06T17:22:49.316Z,31.37
2017-11-06T17:25:18.368Z,27.87
2017-11-06T17:27:47.419Z,23.10
2017-11-06T17:30:16.470Z,32.83
2017-11-06T17:32:47.475Z,28.97
2017-11-06T17:35:17.425Z,31.83
2017-11-06T17:37:46.493Z,28.93
2017-11-06T17:40:17.523Z,35.07
2017-11-06T17:43:04.556Z,28.67
2017-11-06T17:45:33.572Z,29.90
2017-11-06T17:48:10.626Z,43.00
2017-11-06T17:50:39.721Z,34.77
2017-11-06T17:53:09.749Z,29.70
2017-11-06T17:55:38.832Z,29.17
2017-11-06T17:58:07.873Z,37.03
2017-11-06T18:00:36.961Z,39.33
2017-11-06T18:03:06.042Z,37.07
2017-11-06T18:05:35.074Z,34.83
2017-11-06T18:08:04.167Z,37.17
2017-11-06T18:10:33.182Z,35.70
2017-11-06T18:13:02.224Z,38.97
2017-11-06T18:15:31.340Z,33.80
2017-11-06T18:18:00.388Z,32.67
2017-11-06T18:20:29.444Z,30.77
2017-11-06T18:22:58.486Z,28.13
2017-11-06T18:25:27.522Z,32.57
2017-11-06T18:27:57.647Z,44.95
2017-11-06T18:30:26.756Z,40.43
2017-11-06T18:35:31.690Z,46.25
2017-11-06T18:38:11.051Z,36.47
2017-11-06T18:40:40.117Z,42.40
2017-11-06T18:43:10.171Z,35.53
2017-11-06T18:45:39.218Z,49.78
2017-11-06T18:48:08.262Z,35.10
2017-11-06T18:50:37.305Z,32.73
2017-11-06T18:53:06.340Z,33.17
2017-11-06T18:55:35.395Z,30.67
2017-11-06T18:58:06.383Z,34.90
2017-11-06T19:00:35.440Z,38.70
2017-11-06T19:03:05.506Z,33.60
2017-11-06T19:05:34.604Z,45.33
2017-11-06T19:08:03.640Z,39.97
2017-11-06T19:10:32.695Z,33.97
2017-11-06T19:13:01.736Z,35.60
2017-11-06T19:15:30.795Z,25.97
2017-11-06T19:18:00.930Z,35.03
2017-11-06T19:20:29.983Z,35.23
2017-11-06T19:22:59.037Z,39.10
2017-11-06T19:25:28.062Z,35.27
2017-11-06T19:27:57.110Z,48.60
2017-11-06T19:30:26.176Z,40.67
2017-11-06T19:32:56.135Z,39.00
2017-11-06T19:35:25.207Z,46.60
2017-11-06T19:37:54.269Z,41.27
2017-11-06T19:40:23.418Z,38.97
2017-11-06T19:45:28.466Z,57.72
2017-11-06T19:48:00.547Z,48.27
2017-11-06T19:50:29.666Z,44.13
2017-11-06T19:52:58.706Z,42.67
2017-11-06T19:55:27.788Z,40.27
2017-11-06T19:57:57.896Z,35.20
2017-11-06T20:00:26.936Z,45.53
2017-11-06T20:02:58.405Z,40.23
2017-11-06T20:05:27.424Z,46.17
2017-11-06T20:07:58.495Z,41.80
2017-11-06T20:10:27.557Z,41.00
2017-11-06T20:12:56.653Z,41.33
2017-11-06T20:15:25.727Z,37.73
2017-11-06T20:17:54.831Z,46.50
2017-11-06T20:20:23.883Z,45.53
2017-11-06T20:22:56.874Z,38.97
2017-11-06T20:25:25.926Z,37.17
2017-11-06T20:27:54.975Z,40.07
2017-11-06T20:30:24.086Z,61.35
2017-11-06T20:32:55.107Z,55.57
2017-11-06T20:35:24.278Z,41.20
2017-11-06T20:40:29.270Z,53.20
2017-11-06T20:43:01.672Z,54.88
2017-11-06T20:45:30.787Z,51.63
2017-11-06T20:48:00.022Z,47.53
2017-11-06T20:50:29.072Z,65.65
2017-11-06T20:55:34.023Z,57.75
2017-11-06T21:00:42.226Z,53.97
2017-11-06T21:03:11.414Z,60.15
2017-11-06T21:05:41.430Z,52.97
2017-11-06T21:08:10.527Z,46.57
2017-11-06T21:10:40.766Z,47.23
2017-11-06T21:13:10.745Z,42.27
2017-11-06T21:15:40.897Z,50.20
2017-11-06T21:18:09.929Z,57.93
2017-11-06T21:20:39.924Z,48.00
2017-11-06T21:23:08.972Z,42.33
2017-11-06T21:25:38.004Z,51.43
2017-11-06T21:28:11.038Z,51.03
2017-11-06T21:30:46.556Z,51.10
2017-11-06T21:33:15.598Z,48.10
2017-11-06T21:35:44.666Z,73.43
2017-11-06T21:38:14.324Z,56.83
2017-11-06T21:43:19.518Z,68.10
2017-11-06T21:45:52.991Z,63.00
2017-11-06T21:48:23.108Z,57.53
2017-11-06T21:50:52.147Z,55.20
2017-11-06T21:53:23.667Z,93.57
2017-11-06T21:55:52.847Z,41.93
2017-11-06T21:58:24.039Z,26.47
2017-11-06T22:00:54.200Z,19.77
2017-11-06T22:03:23.468Z,23.30
2017-11-06T22:05:54.715Z,20.77
2017-11-06T22:11:00.970Z,21.10
2017-11-06T22:13:30.217Z,17.17
2017-11-06T22:18:35.358Z,27.73
2017-11-06T22:21:04.593Z,22.27
2017-11-06T22:26:09.578Z,24.60
2017-11-06T22:28:39.741Z,25.93
2017-11-06T22:31:08.788Z,18.70
2017-11-06T22:36:13.723Z,23.73
2017-11-06T22:38:42.850Z,22.03
2017-11-06T22:41:12.919Z,19.57
2017-11-06T22:43:42.943Z,20.87
2017-11-06T22:46:12.129Z,20.20
2017-11-06T22:48:43.143Z,20.13
2017-11-06T22:51:13.118Z,20.37
2017-11-06T22:53:42.174Z,21.20
2017-11-06T22:56:11.243Z,26.37
2017-11-06T22:58:41.567Z,29.10
2017-11-06T23:01:18.399Z,28.37
2017-11-06T23:03:47.459Z,24.00
2017-11-06T23:06:16.617Z,19.90
2017-11-06T23:08:45.651Z,25.80
2017-11-06T23:13:50.595Z,27.45
2017-11-06T23:16:20.779Z,25.03
2017-11-06T23:18:50.004Z,25.57
2017-11-06T23:21:26.447Z,27.33
2017-11-06T23:23:55.514Z,21.50
2017-11-06T23:26:30.075Z,24.37
2017-11-06T23:28:59.232Z,21.60
2017-11-06T23:34:04.200Z,34.03
2017-11-06T23:36:37.275Z,33.07
2017-11-06T23:39:07.472Z,26.57
2017-11-06T23:41:36.725Z,27.90
2017-11-06T23:44:11.523Z,27.17
2017-11-06T23:46:43.134Z,26.98
2017-11-06T23:49:13.355Z,25.60
2017-11-06T23:51:42.613Z,21.13
2017-11-06T23:54:18.825Z,23.67
2017-11-06T23:56:48.357Z,23.20
2017-11-06T23:59:23.667Z,24.23
